createdAt,value
2019-02-23T00:02:16.356Z,100.00
2019-02-23T00:04:44.616Z,100.00
2019-02-23T00:07:12.920Z,100.00
2019-02-23T00:09:41.257Z,100.00
2019-02-23T00:12:09.518Z,100.00
2019-02-23T00:14:37.804Z,100.00
2019-02-23T00:17:06.066Z,100.00
2019-02-23T00:19:34.370Z,100.00
2019-02-23T00:22:02.639Z,100.00
2019-02-23T00:24:30.957Z,100.00
2019-02-23T00:26:59.202Z,100.00
2019-02-23T00:29:27.523Z,100.00
2019-02-23T00:31:55.913Z,100.00
2019-02-23T00:34:24.514Z,100.00
2019-02-23T00:36:52.768Z,100.00
2019-02-23T00:39:21.082Z,100.00
2019-02-23T00:41:49.436Z,100.00
2019-02-23T00:44:17.696Z,100.00
2019-02-23T00:46:46.303Z,100.00
2019-02-23T00:49:14.562Z,100.00
2019-02-23T00:51:42.854Z,100.00
2019-02-23T00:54:11.153Z,100.00
2019-02-23T00:56:39.544Z,100.00
2019-02-23T00:59:07.839Z,100.00
2019-02-23T01:01:36.141Z,100.00
2019-02-23T01:04:04.390Z,100.00
2019-02-23T01:06:32.670Z,100.00
2019-02-23T01:09:01.069Z,100.00
2019-02-23T01:11:30.977Z,100.00
2019-02-23T01:13:59.169Z,100.00
2019-02-23T01:16:27.449Z,100.00
2019-02-23T01:18:56.062Z,100.00
2019-02-23T01:21:24.346Z,100.00
2019-02-23T01:23:52.716Z,100.00
2019-02-23T01:26:20.962Z,100.00
2019-02-23T01:28:49.316Z,100.00
2019-02-23T01:31:17.602Z,100.00
2019-02-23T01:33:45.854Z,100.00
2019-02-23T01:36:14.157Z,100.00
2019-02-23T01:38:42.462Z,100.00
2019-02-23T01:41:10.727Z,100.00
2019-02-23T01:43:38.993Z,100.00
2019-02-23T01:46:07.318Z,100.00
2019-02-23T01:48:36.241Z,100.00
2019-02-23T01:51:04.552Z,100.00
2019-02-23T01:53:32.842Z,100.00
2019-02-23T01:56:01.261Z,100.00
2019-02-23T01:58:29.505Z,100.00
2019-02-23T02:00:57.849Z,100.00
2019-02-23T02:03:26.645Z,100.00
2019-02-23T02:05:54.902Z,100.00
2019-02-23T02:08:23.184Z,100.00
2019-02-23T02:10:51.542Z,100.00
2019-02-23T02:13:19.966Z,100.00
2019-02-23T02:15:48.287Z,100.00
2019-02-23T02:18:16.621Z,100.00
2019-02-23T02:20:45.023Z,100.00
2019-02-23T02:23:13.273Z,100.00
2019-02-23T02:25:41.534Z,100.00
2019-02-23T02:28:09.973Z,100.00
2019-02-23T02:30:38.268Z,100.00
2019-02-23T02:33:06.547Z,100.00
2019-02-23T02:35:34.856Z,100.00
2019-02-23T02:38:03.138Z,100.00
2019-02-23T02:40:31.417Z,100.00
2019-02-23T02:42:59.755Z,100.00
2019-02-23T02:45:28.321Z,100.00
2019-02-23T02:47:56.614Z,100.00
2019-02-23T02:50:25.054Z,100.00
2019-02-23T02:52:54.762Z,100.00
2019-02-23T02:55:23.483Z,100.00
2019-02-23T02:57:51.734Z,100.00
2019-02-23T03:00:20.133Z,100.00
2019-02-23T03:02:48.523Z,100.00
2019-02-23T03:05:16.772Z,100.00
2019-02-23T03:07:45.757Z,100.00
2019-02-23T03:10:14.127Z,100.00
2019-02-23T03:12:42.456Z,100.00
2019-02-23T03:15:10.799Z,100.00
2019-02-23T03:17:39.088Z,100.00
2019-02-23T03:20:08.724Z,100.00
2019-02-23T03:22:37.031Z,100.00
2019-02-23T03:25:06.661Z,100.00
2019-02-23T03:27:35.001Z,100.00
2019-02-23T03:30:03.519Z,100.00
2019-02-23T03:32:31.795Z,100.00
2019-02-23T03:35:00.309Z,100.00
2019-02-23T03:37:28.729Z,100.00
2019-02-23T03:39:56.989Z,100.00
2019-02-23T03:42:25.290Z,100.00
2019-02-23T03:44:53.558Z,100.00
2019-02-23T03:47:22.435Z,100.00
2019-02-23T03:49:50.740Z,100.00
2019-02-23T03:52:19.004Z,100.00
2019-02-23T03:54:47.284Z,100.00
2019-02-23T03:57:15.548Z,100.00
2019-02-23T03:59:43.838Z,100.00
2019-02-23T04:02:12.227Z,100.00
2019-02-23T04:04:40.477Z,100.00
2019-02-23T04:07:08.762Z,100.00
2019-02-23T04:09:37.071Z,100.00
2019-02-23T04:12:05.343Z,100.00
2019-02-23T04:14:33.642Z,100.00
2019-02-23T04:17:01.922Z,100.00
2019-02-23T04:19:30.190Z,100.00
2019-02-23T04:21:58.523Z,100.00
2019-02-23T04:24:26.800Z,100.00
2019-02-23T04:26:55.121Z,100.00
2019-02-23T04:29:23.565Z,100.00
2019-02-23T04:31:51.811Z,100.00
2019-02-23T04:34:20.058Z,100.00
2019-02-23T04:36:48.394Z,100.00
2019-02-23T04:39:16.681Z,100.00
2019-02-23T04:41:44.982Z,100.00
2019-02-23T04:44:13.303Z,100.00
2019-02-23T04:46:41.647Z,100.00
2019-02-23T04:49:09.934Z,100.00
2019-02-23T04:51:38.194Z,100.00
2019-02-23T04:54:06.501Z,100.00
2019-02-23T04:56:34.749Z,100.00
2019-02-23T04:59:03.087Z,100.00
2019-02-23T05:01:31.400Z,100.00
2019-02-23T05:03:59.744Z,100.00
2019-02-23T05:06:27.987Z,100.00
2019-02-23T05:08:56.255Z,100.00
2019-02-23T05:11:25.207Z,100.00
2019-02-23T05:13:53.460Z,100.00
2019-02-23T05:16:21.746Z,100.00
2019-02-23T05:18:50.061Z,100.00
2019-02-23T05:21:26.065Z,100.00
2019-02-23T05:23:48.343Z,100.00
2019-02-23T05:26:16.753Z,100.00
2019-02-23T05:28:45.053Z,100.00
2019-02-23T05:31:13.310Z,100.00
2019-02-23T05:33:41.626Z,100.00
2019-02-23T05:36:09.909Z,100.00
2019-02-23T05:38:38.184Z,100.00
2019-02-23T05:41:06.484Z,100.00
2019-02-23T05:43:34.808Z,100.00
2019-02-23T05:46:03.081Z,100.00
2019-02-23T05:48:31.372Z,100.00
2019-02-23T05:51:00.222Z,100.00
2019-02-23T05:53:28.477Z,100.00
2019-02-23T05:55:56.805Z,100.00
2019-02-23T05:58:25.068Z,100.00
2019-02-23T06:00:53.321Z,100.00
2019-02-23T06:03:21.604Z,100.00
2019-02-23T06:05:50.056Z,100.00
2019-02-23T06:08:18.308Z,100.00
2019-02-23T06:10:46.562Z,100.00
2019-02-23T06:13:14.864Z,100.00
2019-02-23T06:15:43.106Z,100.00
2019-02-23T06:18:11.391Z,100.00
2019-02-23T06:20:39.666Z,100.00
2019-02-23T06:23:07.955Z,100.00
2019-02-23T06:25:36.290Z,100.00
2019-02-23T06:28:04.599Z,100.00
2019-02-23T06:30:32.941Z,100.00
2019-02-23T06:33:01.192Z,100.00
2019-02-23T06:35:29.542Z,100.00
2019-02-23T06:37:57.920Z,100.00
2019-02-23T06:40:26.159Z,100.00
2019-02-23T06:42:54.483Z,100.00
2019-02-23T06:45:22.813Z,100.00
2019-02-23T06:47:51.117Z,100.00
2019-02-23T06:50:19.384Z,100.00
2019-02-23T06:52:47.688Z,100.00
2019-02-23T06:55:15.954Z,100.00
2019-02-23T06:57:44.229Z,100.00
2019-02-23T07:00:17.081Z,100.00
2019-02-23T07:02:45.337Z,100.00
2019-02-23T07:05:13.613Z,100.00
2019-02-23T07:07:42.027Z,100.00
2019-02-23T07:10:12.486Z,100.00
2019-02-23T07:12:40.801Z,100.00
2019-02-23T07:15:10.425Z,100.00
2019-02-23T07:17:38.698Z,100.00
2019-02-23T07:20:11.430Z,100.00
2019-02-23T07:22:39.748Z,100.00
2019-02-23T07:25:09.290Z,100.00
2019-02-23T07:27:37.525Z,100.00
2019-02-23T07:30:09.437Z,100.00
2019-02-23T07:32:37.742Z,100.00
2019-02-23T07:35:07.036Z,100.00
2019-02-23T07:37:35.301Z,100.00
2019-02-23T07:40:04.522Z,100.00
2019-02-23T07:42:32.808Z,100.00
2019-02-23T07:45:01.207Z,100.00
2019-02-23T07:47:29.499Z,100.00
2019-02-23T07:49:57.716Z,100.00
2019-02-23T07:52:26.799Z,100.00
2019-02-23T07:54:55.168Z,100.00
2019-02-23T07:57:23.499Z,100.00
2019-02-23T07:59:51.748Z,100.00
2019-02-23T08:02:19.999Z,100.00
2019-02-23T08:04:48.273Z,100.00
2019-02-23T08:07:16.536Z,100.00
2019-02-23T08:09:44.860Z,100.00
2019-02-23T08:12:13.098Z,100.00
2019-02-23T08:14:41.384Z,100.00
2019-02-23T08:17:09.681Z,100.00
2019-02-23T08:19:38.080Z,100.00
2019-02-23T08:22:06.390Z,100.00
2019-02-23T08:24:34.643Z,100.00
2019-02-23T08:27:02.917Z,100.00
2019-02-23T08:29:31.199Z,100.00
2019-02-23T08:31:59.488Z,100.00
2019-02-23T08:34:27.755Z,100.00
2019-02-23T08:36:56.063Z,100.00
2019-02-23T08:39:24.355Z,100.00
2019-02-23T08:41:52.634Z,100.00
2019-02-23T08:44:20.909Z,100.00
2019-02-23T08:46:49.217Z,100.00
2019-02-23T08:49:17.474Z,100.00
2019-02-23T08:51:45.773Z,100.00
2019-02-23T08:54:14.098Z,100.00
2019-02-23T08:56:42.341Z,100.00
2019-02-23T08:59:10.766Z,100.00
2019-02-23T09:01:39.011Z,100.00
2019-02-23T09:04:07.266Z,100.00
2019-02-23T09:06:35.551Z,100.00
2019-02-23T09:09:04.601Z,100.00
2019-02-23T09:11:32.856Z,100.00
2019-02-23T09:14:01.152Z,100.00
2019-02-23T09:16:29.421Z,100.00
2019-02-23T09:18:57.678Z,100.00
2019-02-23T09:21:25.976Z,100.00
2019-02-23T09:23:54.246Z,100.00
2019-02-23T09:26:22.502Z,100.00
2019-02-23T09:28:50.778Z,100.00
2019-02-23T09:31:19.056Z,100.00
2019-02-23T09:33:47.360Z,100.00
2019-02-23T09:36:16.500Z,100.00
2019-02-23T09:38:44.794Z,100.00
2019-02-23T09:41:13.118Z,100.00
2019-02-23T09:43:41.387Z,100.00
2019-02-23T09:46:09.695Z,100.00
2019-02-23T09:48:37.943Z,100.00
2019-02-23T09:51:06.207Z,100.00
2019-02-23T09:53:34.516Z,100.00
2019-02-23T09:56:02.768Z,100.00
2019-02-23T09:58:31.348Z,100.00
2019-02-23T10:00:59.647Z,100.00
2019-02-23T10:03:27.930Z,100.00
2019-02-23T10:05:56.209Z,100.00
2019-02-23T10:08:24.497Z,100.00
2019-02-23T10:10:52.850Z,100.00
2019-02-23T10:13:21.162Z,100.00
2019-02-23T10:15:49.416Z,100.00
2019-02-23T10:18:17.690Z,100.00
2019-02-23T10:20:46.628Z,100.00
2019-02-23T10:23:22.162Z,100.00
2019-02-23T10:25:44.956Z,100.00
2019-02-23T10:28:16.357Z,100.00
2019-02-23T10:30:44.623Z,100.00
2019-02-23T10:33:13.087Z,100.00
2019-02-23T10:35:41.358Z,100.00
2019-02-23T10:38:09.608Z,100.00
2019-02-23T10:40:37.891Z,100.00
2019-02-23T10:43:06.743Z,100.00
2019-02-23T10:45:35.022Z,100.00
2019-02-23T10:48:03.292Z,100.00
2019-02-23T10:50:31.545Z,100.00
2019-02-23T10:52:59.872Z,100.00
2019-02-23T10:55:30.554Z,100.00
2019-02-23T10:57:58.111Z,100.00
2019-02-23T11:00:26.595Z,99.88
2019-02-23T11:02:54.842Z,100.00
2019-02-23T11:05:23.322Z,100.00
2019-02-23T11:07:51.582Z,98.17
2019-02-23T11:10:20.412Z,96.75
2019-02-23T11:12:48.730Z,97.18
2019-02-23T11:15:18.869Z,98.39
2019-02-23T11:17:47.224Z,98.60
2019-02-23T11:20:15.886Z,94.40
2019-02-23T11:22:44.135Z,93.87
2019-02-23T11:25:12.454Z,94.89
2019-02-23T11:27:40.733Z,94.11
2019-02-23T11:30:13.202Z,97.17
2019-02-23T11:32:41.484Z,95.52
2019-02-23T11:35:12.732Z,92.80
2019-02-23T11:37:41.036Z,93.81
2019-02-23T11:40:11.227Z,94.49
2019-02-23T11:42:39.611Z,90.10
2019-02-23T11:45:09.353Z,90.03
2019-02-23T11:47:37.644Z,91.95
2019-02-23T11:50:09.168Z,89.95
2019-02-23T11:52:39.385Z,90.73
2019-02-23T11:55:07.555Z,90.11
2019-02-23T11:57:35.846Z,88.59
2019-02-23T12:00:07.067Z,89.55
2019-02-23T12:02:35.405Z,86.49
2019-02-23T12:05:03.658Z,86.83
2019-02-23T12:07:31.983Z,86.80
2019-02-23T12:10:00.357Z,86.71
2019-02-23T12:12:28.741Z,87.20
2019-02-23T12:14:56.998Z,87.24
2019-02-23T12:17:25.390Z,87.41
2019-02-23T12:19:55.360Z,86.13
2019-02-23T12:22:23.875Z,86.61
2019-02-23T12:24:52.225Z,87.71
2019-02-23T12:27:20.491Z,84.90
2019-02-23T12:29:48.767Z,83.77
2019-02-23T12:32:17.103Z,87.09
2019-02-23T12:34:45.356Z,85.50
2019-02-23T12:37:14.557Z,85.56
2019-02-23T12:39:42.855Z,85.72
2019-02-23T12:42:11.102Z,84.23
2019-02-23T12:44:39.381Z,83.97
2019-02-23T12:47:07.691Z,84.58
2019-02-23T12:49:36.013Z,83.11
2019-02-23T12:52:04.325Z,81.73
2019-02-23T12:54:32.574Z,83.81
2019-02-23T12:57:00.905Z,83.58
2019-02-23T12:59:29.193Z,81.49
2019-02-23T13:01:57.532Z,81.95
2019-02-23T13:04:25.789Z,82.33
2019-02-23T13:06:54.095Z,81.13
2019-02-23T13:09:24.966Z,80.95
2019-02-23T13:12:15.796Z,81.72
2019-02-23T13:15:11.419Z,82.68
2019-02-23T13:17:45.460Z,81.22
2019-02-23T13:20:38.136Z,78.78
2019-02-23T13:23:28.012Z,79.12
2019-02-23T13:26:33.106Z,79.43
2019-02-23T13:29:16.503Z,80.78
2019-02-23T13:31:53.718Z,81.75
2019-02-23T13:34:27.782Z,82.78
2019-02-23T13:37:19.003Z,81.48
2019-02-23T13:40:05.660Z,83.32
2019-02-23T13:42:58.272Z,82.97
2019-02-23T13:45:42.076Z,84.07
2019-02-23T13:48:30.117Z,82.64
2019-02-23T13:51:05.965Z,83.48
2019-02-23T13:53:53.715Z,82.56
2019-02-23T13:56:34.262Z,83.39
2019-02-23T13:59:29.498Z,81.59
2019-02-23T14:02:17.673Z,79.70
2019-02-23T14:05:18.138Z,80.63
2019-02-23T14:07:55.840Z,81.32
2019-02-23T14:10:45.618Z,79.88
2019-02-23T14:13:32.044Z,77.75
2019-02-23T14:16:08.995Z,79.48
2019-02-23T14:18:43.387Z,78.12
2019-02-23T14:21:17.644Z,74.17
2019-02-23T14:23:58.045Z,71.90
2019-02-23T14:26:58.056Z,73.73
2019-02-23T14:29:52.261Z,74.90
2019-02-23T14:32:23.791Z,71.94
2019-02-23T14:35:27.103Z,71.43
2019-02-23T14:38:22.924Z,71.52
2019-02-23T14:40:57.475Z,72.60
2019-02-23T14:44:02.207Z,72.65
2019-02-23T14:46:33.808Z,72.77
2019-02-23T14:49:24.638Z,72.33
2019-02-23T14:51:58.866Z,71.73
2019-02-23T14:54:36.303Z,70.27
2019-02-23T14:57:27.672Z,70.87
2019-02-23T14:59:59.191Z,70.00
2019-02-23T15:03:05.538Z,69.55
2019-02-23T15:05:42.471Z,70.06
2019-02-23T15:08:19.919Z,69.86
2019-02-23T15:10:56.741Z,70.85
2019-02-23T15:13:37.280Z,70.99
2019-02-23T15:16:29.875Z,71.30
2019-02-23T15:19:17.897Z,71.33
2019-02-23T15:22:16.881Z,72.20
2019-02-23T15:25:17.541Z,73.21
2019-02-23T15:28:01.180Z,70.05
2019-02-23T15:30:44.728Z,71.39
2019-02-23T15:33:19.050Z,71.99
2019-02-23T15:35:56.352Z,71.25
2019-02-23T15:38:56.863Z,71.82
2019-02-23T15:41:34.119Z,71.96
2019-02-23T15:44:08.445Z,73.14
2019-02-23T15:46:42.908Z,73.73
2019-02-23T15:49:31.792Z,74.21
2019-02-23T15:52:01.332Z,73.06
2019-02-23T15:54:29.864Z,72.45
2019-02-23T15:56:58.128Z,73.39
2019-02-23T15:59:26.444Z,74.12
2019-02-23T16:01:54.693Z,74.58
2019-02-23T16:04:23.015Z,74.97
2019-02-23T16:06:51.261Z,75.12
2019-02-23T16:09:19.517Z,75.67
2019-02-23T16:11:48.158Z,76.60
2019-02-23T16:14:16.568Z,78.18
2019-02-23T16:16:47.406Z,80.31
2019-02-23T16:19:15.293Z,81.25
2019-02-23T16:21:43.542Z,82.76
2019-02-23T16:24:11.798Z,83.53
2019-02-23T16:26:40.171Z,84.27
2019-02-23T16:29:08.391Z,84.81
2019-02-23T16:31:36.740Z,85.44
2019-02-23T16:34:07.352Z,85.31
2019-02-23T16:36:35.247Z,85.59
2019-02-23T16:39:05.214Z,85.94
2019-02-23T16:41:33.471Z,86.23
2019-02-23T16:44:01.784Z,86.63
2019-02-23T16:46:30.830Z,86.81
2019-02-23T16:48:59.082Z,86.95
2019-02-23T16:51:27.363Z,87.29
2019-02-23T16:53:55.687Z,88.10
2019-02-23T16:56:24.016Z,88.20
2019-02-23T16:58:52.259Z,88.35
2019-02-23T17:01:20.857Z,88.35
2019-02-23T17:03:49.207Z,88.60
2019-02-23T17:06:17.819Z,88.86
2019-02-23T17:08:46.099Z,89.08
2019-02-23T17:11:14.581Z,89.29
2019-02-23T17:13:42.932Z,89.34
2019-02-23T17:16:11.206Z,89.55
2019-02-23T17:18:39.480Z,89.69
2019-02-23T17:21:07.774Z,90.01
2019-02-23T17:23:36.005Z,90.21
2019-02-23T17:26:04.685Z,90.27
2019-02-23T17:28:33.066Z,90.41
2019-02-23T17:31:02.135Z,90.73
2019-02-23T17:33:30.446Z,91.04
2019-02-23T17:35:58.833Z,91.43
2019-02-23T17:38:27.132Z,91.79
2019-02-23T17:40:56.958Z,92.07
2019-02-23T17:43:25.272Z,92.53
2019-02-23T17:45:53.638Z,92.85
2019-02-23T17:48:21.892Z,92.90
2019-02-23T17:50:50.780Z,93.31
2019-02-23T17:53:19.688Z,93.65
2019-02-23T17:55:47.976Z,94.06
2019-02-23T17:58:16.225Z,94.47
2019-02-23T18:00:44.531Z,94.89
2019-02-23T18:03:12.865Z,95.09
2019-02-23T18:05:41.150Z,95.58
2019-02-23T18:08:09.430Z,96.00
2019-02-23T18:10:37.705Z,96.32
2019-02-23T18:13:05.976Z,96.52
2019-02-23T18:15:34.373Z,96.79
2019-02-23T18:18:02.629Z,97.14
2019-02-23T18:20:30.917Z,97.31
2019-02-23T18:22:59.288Z,97.73
2019-02-23T18:25:27.608Z,98.03
2019-02-23T18:27:56.234Z,98.20
2019-02-23T18:30:24.534Z,98.25
2019-02-23T18:32:52.806Z,98.46
2019-02-23T18:35:21.109Z,98.65
2019-02-23T18:37:49.366Z,98.88
2019-02-23T18:40:17.658Z,99.08
2019-02-23T18:42:45.968Z,99.22
2019-02-23T18:45:14.288Z,99.38
2019-02-23T18:47:42.539Z,99.55
2019-02-23T18:50:10.842Z,99.74
2019-02-23T18:52:39.120Z,100.00
2019-02-23T18:55:08.135Z,100.00
2019-02-23T18:57:36.392Z,100.00
2019-02-23T19:00:08.784Z,100.00
2019-02-23T19:02:37.175Z,100.00
2019-02-23T19:05:08.873Z,100.00
2019-02-23T19:07:37.302Z,100.00
2019-02-23T19:10:08.842Z,100.00
2019-02-23T19:12:39.569Z,100.00
2019-02-23T19:15:10.592Z,100.00
2019-02-23T19:17:38.871Z,100.00
2019-02-23T19:20:10.474Z,100.00
2019-02-23T19:22:38.739Z,100.00
2019-02-23T19:25:09.040Z,100.00
2019-02-23T19:27:37.315Z,100.00
2019-02-23T19:30:09.014Z,100.00
2019-02-23T19:32:37.386Z,100.00
2019-02-23T19:35:07.299Z,100.00
2019-02-23T19:37:35.652Z,100.00
2019-02-23T19:40:04.765Z,100.00
2019-02-23T19:42:33.070Z,100.00
2019-02-23T19:45:01.364Z,100.00
2019-02-23T19:47:30.225Z,100.00
2019-02-23T19:50:00.205Z,100.00
2019-02-23T19:52:28.544Z,100.00
2019-02-23T19:54:56.868Z,100.00
2019-02-23T19:57:25.163Z,100.00
2019-02-23T19:59:53.442Z,100.00
2019-02-23T20:02:21.854Z,100.00
2019-02-23T20:04:50.214Z,100.00
2019-02-23T20:07:18.572Z,100.00
2019-02-23T20:09:46.833Z,100.00
2019-02-23T20:12:15.121Z,100.00
2019-02-23T20:14:43.383Z,100.00
2019-02-23T20:17:11.709Z,100.00
2019-02-23T20:19:39.995Z,100.00
2019-02-23T20:22:08.330Z,100.00
2019-02-23T20:24:39.685Z,100.00
2019-02-23T20:27:07.997Z,100.00
2019-02-23T20:29:37.122Z,100.00
2019-02-23T20:32:05.468Z,100.00
2019-02-23T20:34:33.872Z,100.00
2019-02-23T20:37:02.887Z,100.00
2019-02-23T20:39:31.224Z,100.00
2019-02-23T20:41:59.515Z,100.00
2019-02-23T20:44:27.802Z,100.00
2019-02-23T20:46:56.114Z,100.00
2019-02-23T20:49:25.029Z,100.00
2019-02-23T20:51:53.282Z,100.00
2019-02-23T20:54:21.821Z,100.00
2019-02-23T20:56:50.121Z,100.00
2019-02-23T20:59:18.376Z,100.00
2019-02-23T21:01:46.732Z,100.00
2019-02-23T21:04:15.065Z,100.00
2019-02-23T21:06:43.316Z,100.00
2019-02-23T21:09:11.604Z,100.00
2019-02-23T21:11:39.973Z,100.00
2019-02-23T21:14:08.353Z,100.00
2019-02-23T21:16:36.753Z,100.00
2019-02-23T21:19:05.656Z,100.00
2019-02-23T21:21:33.949Z,100.00
2019-02-23T21:24:02.229Z,100.00
2019-02-23T21:26:30.542Z,100.00
2019-02-23T21:28:58.809Z,100.00
2019-02-23T21:31:27.061Z,100.00
2019-02-23T21:33:55.378Z,100.00
2019-02-23T21:36:23.630Z,100.00
2019-02-23T21:38:52.062Z,100.00
2019-02-23T21:41:20.297Z,100.00
2019-02-23T21:43:48.588Z,100.00
2019-02-23T21:46:16.856Z,100.00
2019-02-23T21:48:45.112Z,100.00
2019-02-23T21:51:13.388Z,100.00
2019-02-23T21:53:41.644Z,100.00
2019-02-23T21:56:10.006Z,100.00
2019-02-23T21:58:38.287Z,100.00
2019-02-23T22:01:06.599Z,100.00
2019-02-23T22:03:34.905Z,100.00
2019-02-23T22:06:03.176Z,100.00
2019-02-23T22:08:31.428Z,100.00
2019-02-23T22:10:59.707Z,100.00
2019-02-23T22:13:27.981Z,100.00
2019-02-23T22:15:56.257Z,100.00
2019-02-23T22:18:24.695Z,100.00
2019-02-23T22:20:52.971Z,100.00
2019-02-23T22:23:21.217Z,100.00
2019-02-23T22:25:49.525Z,100.00
2019-02-23T22:28:17.790Z,100.00
2019-02-23T22:30:46.122Z,100.00
2019-02-23T22:33:14.455Z,100.00
2019-02-23T22:35:42.939Z,100.00
2019-02-23T22:38:11.210Z,100.00
2019-02-23T22:40:40.879Z,100.00
2019-02-23T22:43:09.261Z,100.00
2019-02-23T22:45:37.520Z,100.00
2019-02-23T22:48:05.878Z,100.00
2019-02-23T22:50:35.772Z,100.00
2019-02-23T22:53:04.357Z,100.00
2019-02-23T22:55:32.583Z,100.00
2019-02-23T22:58:00.869Z,100.00
2019-02-23T23:00:30.864Z,100.00
2019-02-23T23:02:59.111Z,100.00
2019-02-23T23:05:27.362Z,100.00
2019-02-23T23:07:55.698Z,100.00
2019-02-23T23:10:23.977Z,100.00
2019-02-23T23:12:52.260Z,100.00
2019-02-23T23:15:20.566Z,100.00
2019-02-23T23:17:48.867Z,100.00
2019-02-23T23:20:17.209Z,100.00
2019-02-23T23:22:45.507Z,100.00
2019-02-23T23:25:13.882Z,100.00
2019-02-23T23:27:49.089Z,100.00
2019-02-23T23:30:12.188Z,100.00
2019-02-23T23:32:40.576Z,100.00
2019-02-23T23:35:08.872Z,100.00
2019-02-23T23:37:37.172Z,100.00
2019-02-23T23:40:06.515Z,100.00
2019-02-23T23:42:34.763Z,100.00
2019-02-23T23:45:03.115Z,100.00
2019-02-23T23:47:31.374Z,100.00
2019-02-23T23:49:59.761Z,100.00
2019-02-23T23:52:28.037Z,100.00
2019-02-23T23:54:56.859Z,100.00
2019-02-23T23:57:25.151Z,100.00
2019-02-23T23:59:53.515Z,100.00
